sensor_id;sensor_type;location;lat;lon;timestamp;P1;durP1;ratioP1;P2;durP2;ratioP2
13941;SDS011;7043;51.630;7.254;2024-01-30T00:02:28;10.90;;;9.00;;
13941;SDS011;7043;51.630;7.254;2024-01-30T00:04:57;11.43;;;9.53;;
13941;SDS011;7043;51.630;7.254;2024-01-30T00:07:38;14.10;;;9.87;;
13941;SDS011;7043;51.630;7.254;2024-01-30T00:10:10;10.67;;;9.57;;
13941;SDS011;7043;51.630;7.254;2024-01-30T00:12:39;10.50;;;9.40;;
13941;SDS011;7043;51.630;7.254;2024-01-30T00:15:14;12.57;;;9.77;;
13941;SDS011;7043;51.630;7.254;2024-01-30T00:17:51;11.67;;;9.27;;
13941;SDS011;7043;51.630;7.254;2024-01-30T00:20:27;13.63;;;10.17;;
13941;SDS011;7043;51.630;7.254;2024-01-30T00:26:32;10.37;;;9.30;;
13941;SDS011;7043;51.630;7.254;2024-01-30T00:29:01;12.27;;;10.00;;
13941;SDS011;7043;51.630;7.254;2024-01-30T00:34:51;10.87;;;9.77;;
13941;SDS011;7043;51.630;7.254;2024-01-30T00:37:26;10.90;;;9.80;;
13941;SDS011;7043;51.630;7.254;2024-01-30T00:49:08;11.93;;;9.93;;
13941;SDS011;7043;51.630;7.254;2024-01-30T00:52:10;11.30;;;10.10;;
13941;SDS011;7043;51.630;7.254;2024-01-30T00:54:36;12.77;;;10.30;;
13941;SDS011;7043;51.630;7.254;2024-01-30T00:57:08;11.70;;;10.50;;
13941;SDS011;7043;51.630;7.254;2024-01-30T00:59:46;10.97;;;9.87;;
13941;SDS011;7043;51.630;7.254;2024-01-30T01:02:24;11.43;;;10.23;;
13941;SDS011;7043;51.630;7.254;2024-01-30T01:05:19;18.13;;;14.07;;
13941;SDS011;7043;51.630;7.254;2024-01-30T01:08:17;13.30;;;11.13;;
13941;SDS011;7043;51.630;7.254;2024-01-30T01:11:11;12.47;;;11.27;;
13941;SDS011;7043;51.630;7.254;2024-01-30T01:13:36;13.13;;;11.03;;
13941;SDS011;7043;51.630;7.254;2024-01-30T01:16:05;11.87;;;10.67;;
13941;SDS011;7043;51.630;7.254;2024-01-30T01:18:52;13.27;;;10.13;;
13941;SDS011;7043;51.630;7.254;2024-01-30T01:21:28;11.53;;;10.23;;
13941;SDS011;7043;51.630;7.254;2024-01-30T01:24:06;12.93;;;10.23;;
13941;SDS011;7043;51.630;7.254;2024-01-30T01:29:36;12.00;;;10.33;;
13941;SDS011;7043;51.630;7.254;2024-01-30T01:32:11;12.23;;;10.77;;
13941;SDS011;7043;51.630;7.254;2024-01-30T01:34:37;12.00;;;10.57;;
13941;SDS011;7043;51.630;7.254;2024-01-30T01:37:35;16.53;;;14.70;;
13941;SDS011;7043;51.630;7.254;2024-01-30T01:40:19;14.13;;;12.60;;
13941;SDS011;7043;51.630;7.254;2024-01-30T01:43:05;16.00;;;14.30;;
13941;SDS011;7043;51.630;7.254;2024-01-30T01:45:31;17.30;;;14.90;;
13941;SDS011;7043;51.630;7.254;2024-01-30T01:48:03;14.47;;;13.07;;
13941;SDS011;7043;51.630;7.254;2024-01-30T01:50:35;14.30;;;12.77;;
13941;SDS011;7043;51.630;7.254;2024-01-30T01:53:14;16.53;;;14.53;;
13941;SDS011;7043;51.630;7.254;2024-01-30T01:56:04;13.20;;;11.57;;
13941;SDS011;7043;51.630;7.254;2024-01-30T01:58:37;14.77;;;13.27;;
13941;SDS011;7043;51.630;7.254;2024-01-30T02:01:12;14.50;;;11.40;;
13941;SDS011;7043;51.630;7.254;2024-01-30T02:04:17;11.73;;;10.57;;
13941;SDS011;7043;51.630;7.254;2024-01-30T02:07:02;12.43;;;10.97;;
13941;SDS011;7043;51.630;7.254;2024-01-30T02:09:43;12.87;;;11.60;;
13941;SDS011;7043;51.630;7.254;2024-01-30T02:12:18;13.00;;;11.63;;
13941;SDS011;7043;51.630;7.254;2024-01-30T02:14:53;15.20;;;12.20;;
13941;SDS011;7043;51.630;7.254;2024-01-30T02:17:35;17.60;;;15.17;;
13941;SDS011;7043;51.630;7.254;2024-01-30T02:20:11;16.70;;;14.10;;
13941;SDS011;7043;51.630;7.254;2024-01-30T02:22:48;16.73;;;14.93;;
13941;SDS011;7043;51.630;7.254;2024-01-30T02:28:46;13.90;;;12.50;;
13941;SDS011;7043;51.630;7.254;2024-01-30T02:34:43;12.73;;;11.00;;
13941;SDS011;7043;51.630;7.254;2024-01-30T02:40:53;12.40;;;11.20;;
13941;SDS011;7043;51.630;7.254;2024-01-30T02:43:22;13.57;;;11.30;;
13941;SDS011;7043;51.630;7.254;2024-01-30T02:46:22;12.37;;;11.13;;
13941;SDS011;7043;51.630;7.254;2024-01-30T02:48:54;12.13;;;10.93;;
13941;SDS011;7043;51.630;7.254;2024-01-30T02:51:44;10.97;;;9.87;;
13941;SDS011;7043;51.630;7.254;2024-01-30T02:54:10;12.57;;;11.20;;
13941;SDS011;7043;51.630;7.254;2024-01-30T02:56:48;12.47;;;11.17;;
13941;SDS011;7043;51.630;7.254;2024-01-30T02:59:17;12.30;;;11.00;;
13941;SDS011;7043;51.630;7.254;2024-01-30T03:05:21;12.23;;;10.93;;
13941;SDS011;7043;51.630;7.254;2024-01-30T03:08:29;12.47;;;11.17;;
13941;SDS011;7043;51.630;7.254;2024-01-30T03:11:16;12.40;;;10.83;;
13941;SDS011;7043;51.630;7.254;2024-01-30T03:13:57;11.83;;;10.60;;
13941;SDS011;7043;51.630;7.254;2024-01-30T03:16:32;13.13;;;11.40;;
13941;SDS011;7043;51.630;7.254;2024-01-30T03:19:48;18.83;;;15.73;;
13941;SDS011;7043;51.630;7.254;2024-01-30T03:22:20;14.00;;;12.60;;
13941;SDS011;7043;51.630;7.254;2024-01-30T03:25:04;24.67;;;19.23;;
13941;SDS011;7043;51.630;7.254;2024-01-30T03:30:24;15.17;;;12.33;;
13941;SDS011;7043;51.630;7.254;2024-01-30T03:32:57;14.37;;;11.53;;
13941;SDS011;7043;51.630;7.254;2024-01-30T03:35:35;12.87;;;11.23;;
13941;SDS011;7043;51.630;7.254;2024-01-30T03:47:28;15.03;;;13.53;;
13941;SDS011;7043;51.630;7.254;2024-01-30T03:56:30;12.53;;;11.27;;
13941;SDS011;7043;51.630;7.254;2024-01-30T03:58:59;12.57;;;11.23;;
13941;SDS011;7043;51.630;7.254;2024-01-30T04:01:27;13.57;;;11.97;;
13941;SDS011;7043;51.630;7.254;2024-01-30T04:04:12;13.40;;;11.63;;
13941;SDS011;7043;51.630;7.254;2024-01-30T04:07:10;13.93;;;11.73;;
13941;SDS011;7043;51.630;7.254;2024-01-30T04:09:59;14.40;;;11.90;;
13941;SDS011;7043;51.630;7.254;2024-01-30T04:12:34;14.57;;;13.07;;
13941;SDS011;7043;51.630;7.254;2024-01-30T04:18:17;15.27;;;11.87;;
13941;SDS011;7043;51.630;7.254;2024-01-30T04:21:02;11.77;;;10.53;;
13941;SDS011;7043;51.630;7.254;2024-01-30T04:23:40;13.97;;;10.43;;
13941;SDS011;7043;51.630;7.254;2024-01-30T04:32:30;11.17;;;10.03;;
13941;SDS011;7043;51.630;7.254;2024-01-30T04:38:14;15.03;;;11.30;;
13941;SDS011;7043;51.630;7.254;2024-01-30T04:40:48;23.57;;;20.27;;
13941;SDS011;7043;51.630;7.254;2024-01-30T04:46:12;12.07;;;10.87;;
13941;SDS011;7043;51.630;7.254;2024-01-30T04:48:43;12.10;;;10.83;;
13941;SDS011;7043;51.630;7.254;2024-01-30T04:57:28;11.23;;;9.57;;
13941;SDS011;7043;51.630;7.254;2024-01-30T04:59:59;11.30;;;10.10;;
13941;SDS011;7043;51.630;7.254;2024-01-30T05:02:55;11.03;;;9.60;;
13941;SDS011;7043;51.630;7.254;2024-01-30T05:05:26;10.10;;;9.00;;
13941;SDS011;7043;51.630;7.254;2024-01-30T05:08:01;10.20;;;9.20;;
13941;SDS011;7043;51.630;7.254;2024-01-30T05:10:37;11.07;;;9.27;;
13941;SDS011;7043;51.630;7.254;2024-01-30T05:13:56;12.40;;;10.17;;
13941;SDS011;7043;51.630;7.254;2024-01-30T05:16:27;14.83;;;12.03;;
13941;SDS011;7043;51.630;7.254;2024-01-30T05:19:14;10.93;;;9.47;;
13941;SDS011;7043;51.630;7.254;2024-01-30T05:22:04;12.40;;;10.53;;
13941;SDS011;7043;51.630;7.254;2024-01-30T05:27:32;10.70;;;9.40;;
13941;SDS011;7043;51.630;7.254;2024-01-30T05:30:27;11.40;;;9.97;;
13941;SDS011;7043;51.630;7.254;2024-01-30T05:32:52;10.27;;;9.13;;
13941;SDS011;7043;51.630;7.254;2024-01-30T05:35:21;10.43;;;9.33;;
13941;SDS011;7043;51.630;7.254;2024-01-30T05:37:50;10.60;;;8.77;;
13941;SDS011;7043;51.630;7.254;2024-01-30T05:40:22;10.07;;;8.97;;
13941;SDS011;7043;51.630;7.254;2024-01-30T05:42:54;10.17;;;9.03;;
13941;SDS011;7043;51.630;7.254;2024-01-30T05:48:29;9.90;;;8.90;;
13941;SDS011;7043;51.630;7.254;2024-01-30T05:51:10;9.97;;;8.67;;
13941;SDS011;7043;51.630;7.254;2024-01-30T05:53:59;10.23;;;8.80;;
13941;SDS011;7043;51.630;7.254;2024-01-30T05:56:35;10.07;;;9.07;;
13941;SDS011;7043;51.630;7.254;2024-01-30T05:59:10;11.03;;;9.17;;
13941;SDS011;7043;51.630;7.254;2024-01-30T06:01:51;12.50;;;9.73;;
13941;SDS011;7043;51.630;7.254;2024-01-30T06:04:35;11.00;;;9.77;;
13941;SDS011;7043;51.630;7.254;2024-01-30T06:07:14;13.60;;;12.30;;
13941;SDS011;7043;51.630;7.254;2024-01-30T06:09:39;15.20;;;12.17;;
13941;SDS011;7043;51.630;7.254;2024-01-30T06:12:06;14.07;;;12.57;;
13941;SDS011;7043;51.630;7.254;2024-01-30T06:14:32;14.77;;;12.20;;
13941;SDS011;7043;51.630;7.254;2024-01-30T06:17:01;12.17;;;9.87;;
13941;SDS011;7043;51.630;7.254;2024-01-30T06:19:27;10.87;;;9.80;;
13941;SDS011;7043;51.630;7.254;2024-01-30T06:21:53;12.63;;;11.20;;
13941;SDS011;7043;51.630;7.254;2024-01-30T06:24:19;10.47;;;9.17;;
13941;SDS011;7043;51.630;7.254;2024-01-30T06:26:45;12.07;;;10.03;;
13941;SDS011;7043;51.630;7.254;2024-01-30T06:29:11;11.53;;;10.33;;
13941;SDS011;7043;51.630;7.254;2024-01-30T06:31:40;12.03;;;10.93;;
13941;SDS011;7043;51.630;7.254;2024-01-30T06:34:07;10.53;;;9.37;;
13941;SDS011;7043;51.630;7.254;2024-01-30T06:36:33;11.80;;;10.57;;
13941;SDS011;7043;51.630;7.254;2024-01-30T06:39:02;14.07;;;12.87;;
13941;SDS011;7043;51.630;7.254;2024-01-30T06:41:28;11.17;;;10.07;;
13941;SDS011;7043;51.630;7.254;2024-01-30T06:43:54;11.57;;;10.40;;
13941;SDS011;7043;51.630;7.254;2024-01-30T06:46:20;10.83;;;9.27;;
13941;SDS011;7043;51.630;7.254;2024-01-30T06:48:46;12.93;;;10.63;;
13941;SDS011;7043;51.630;7.254;2024-01-30T06:51:12;12.43;;;11.13;;
13941;SDS011;7043;51.630;7.254;2024-01-30T06:53:38;11.57;;;9.90;;
13941;SDS011;7043;51.630;7.254;2024-01-30T06:56:04;10.47;;;9.13;;
13941;SDS011;7043;51.630;7.254;2024-01-30T06:58:31;10.53;;;9.10;;
13941;SDS011;7043;51.630;7.254;2024-01-30T07:00:57;11.13;;;9.43;;
13941;SDS011;7043;51.630;7.254;2024-01-30T07:03:23;10.87;;;8.83;;
13941;SDS011;7043;51.630;7.254;2024-01-30T07:05:49;10.80;;;9.17;;
13941;SDS011;7043;51.630;7.254;2024-01-30T07:08:16;10.27;;;8.97;;
13941;SDS011;7043;51.630;7.254;2024-01-30T07:10:45;10.27;;;9.17;;
13941;SDS011;7043;51.630;7.254;2024-01-30T07:13:12;10.73;;;9.20;;
13941;SDS011;7043;51.630;7.254;2024-01-30T07:15:38;10.00;;;8.97;;
13941;SDS011;7043;51.630;7.254;2024-01-30T07:18:04;10.57;;;9.33;;
13941;SDS011;7043;51.630;7.254;2024-01-30T07:20:30;9.87;;;8.90;;
13941;SDS011;7043;51.630;7.254;2024-01-30T07:23:00;11.33;;;9.30;;
13941;SDS011;7043;51.630;7.254;2024-01-30T07:25:27;12.03;;;9.23;;
13941;SDS011;7043;51.630;7.254;2024-01-30T07:27:54;11.77;;;9.77;;
13941;SDS011;7043;51.630;7.254;2024-01-30T07:30:20;11.80;;;9.37;;
13941;SDS011;7043;51.630;7.254;2024-01-30T07:32:46;11.40;;;9.27;;
13941;SDS011;7043;51.630;7.254;2024-01-30T07:35:13;10.80;;;9.73;;
13941;SDS011;7043;51.630;7.254;2024-01-30T07:37:40;24.73;;;22.20;;
13941;SDS011;7043;51.630;7.254;2024-01-30T07:40:06;17.87;;;16.07;;
13941;SDS011;7043;51.630;7.254;2024-01-30T07:42:33;14.60;;;13.07;;
13941;SDS011;7043;51.630;7.254;2024-01-30T07:44:59;11.90;;;10.70;;
13941;SDS011;7043;51.630;7.254;2024-01-30T07:47:25;13.00;;;10.60;;
13941;SDS011;7043;51.630;7.254;2024-01-30T07:49:51;10.07;;;9.03;;
13941;SDS011;7043;51.630;7.254;2024-01-30T07:52:19;10.77;;;9.63;;
13941;SDS011;7043;51.630;7.254;2024-01-30T07:54:48;13.43;;;10.00;;
13941;SDS011;7043;51.630;7.254;2024-01-30T08:03:21;10.10;;;8.97;;
13941;SDS011;7043;51.630;7.254;2024-01-30T08:05:47;12.10;;;10.57;;
13941;SDS011;7043;51.630;7.254;2024-01-30T08:08:13;10.40;;;9.30;;
13941;SDS011;7043;51.630;7.254;2024-01-30T08:10:40;9.83;;;8.83;;
13941;SDS011;7043;51.630;7.254;2024-01-30T08:13:05;11.53;;;9.60;;
13941;SDS011;7043;51.630;7.254;2024-01-30T08:15:33;10.43;;;8.67;;
13941;SDS011;7043;51.630;7.254;2024-01-30T08:17:59;12.43;;;9.43;;
13941;SDS011;7043;51.630;7.254;2024-01-30T08:20:26;9.87;;;8.17;;
13941;SDS011;7043;51.630;7.254;2024-01-30T08:22:52;11.53;;;9.13;;
13941;SDS011;7043;51.630;7.254;2024-01-30T08:25:18;9.77;;;8.60;;
13941;SDS011;7043;51.630;7.254;2024-01-30T08:27:44;9.73;;;8.13;;
13941;SDS011;7043;51.630;7.254;2024-01-30T08:30:10;8.70;;;7.80;;
13941;SDS011;7043;51.630;7.254;2024-01-30T08:32:36;9.60;;;7.93;;
13941;SDS011;7043;51.630;7.254;2024-01-30T08:35:02;11.83;;;8.17;;
13941;SDS011;7043;51.630;7.254;2024-01-30T08:37:28;8.67;;;7.70;;
13941;SDS011;7043;51.630;7.254;2024-01-30T08:39:54;9.17;;;8.20;;
13941;SDS011;7043;51.630;7.254;2024-01-30T08:42:20;9.63;;;8.03;;
13941;SDS011;7043;51.630;7.254;2024-01-30T08:44:50;9.77;;;8.07;;
13941;SDS011;7043;51.630;7.254;2024-01-30T08:47:17;10.67;;;8.50;;
13941;SDS011;7043;51.630;7.254;2024-01-30T08:49:43;10.77;;;8.80;;
13941;SDS011;7043;51.630;7.254;2024-01-30T08:52:10;10.67;;;8.60;;
13941;SDS011;7043;51.630;7.254;2024-01-30T08:54:36;12.63;;;8.77;;
13941;SDS011;7043;51.630;7.254;2024-01-30T08:57:02;10.60;;;8.17;;
13941;SDS011;7043;51.630;7.254;2024-01-30T08:59:29;10.03;;;8.10;;
13941;SDS011;7043;51.630;7.254;2024-01-30T09:01:55;9.20;;;8.27;;
13941;SDS011;7043;51.630;7.254;2024-01-30T09:04:23;10.30;;;7.83;;
13941;SDS011;7043;51.630;7.254;2024-01-30T09:06:49;9.63;;;7.93;;
13941;SDS011;7043;51.630;7.254;2024-01-30T09:09:15;9.80;;;8.00;;
13941;SDS011;7043;51.630;7.254;2024-01-30T09:11:41;8.73;;;7.83;;
13941;SDS011;7043;51.630;7.254;2024-01-30T09:14:07;8.63;;;7.73;;
13941;SDS011;7043;51.630;7.254;2024-01-30T09:16:33;9.37;;;8.00;;
13941;SDS011;7043;51.630;7.254;2024-01-30T09:18:59;9.50;;;7.70;;
13941;SDS011;7043;51.630;7.254;2024-01-30T09:21:25;8.33;;;7.10;;
13941;SDS011;7043;51.630;7.254;2024-01-30T09:23:54;7.90;;;7.07;;
13941;SDS011;7043;51.630;7.254;2024-01-30T09:26:20;11.70;;;7.50;;
13941;SDS011;7043;51.630;7.254;2024-01-30T09:29:07;8.60;;;7.53;;
13941;SDS011;7043;51.630;7.254;2024-01-30T09:31:39;10.97;;;7.10;;
13941;SDS011;7043;51.630;7.254;2024-01-30T09:34:18;9.90;;;7.00;;
13941;SDS011;7043;51.630;7.254;2024-01-30T09:36:44;12.50;;;7.10;;
13941;SDS011;7043;51.630;7.254;2024-01-30T09:39:10;9.33;;;6.47;;
13941;SDS011;7043;51.630;7.254;2024-01-30T09:41:38;9.33;;;6.53;;
13941;SDS011;7043;51.630;7.254;2024-01-30T09:44:07;8.17;;;6.73;;
13941;SDS011;7043;51.630;7.254;2024-01-30T09:46:34;10.33;;;7.63;;
13941;SDS011;7043;51.630;7.254;2024-01-30T09:49:00;8.90;;;7.17;;
13941;SDS011;7043;51.630;7.254;2024-01-30T09:51:28;8.97;;;7.80;;
13941;SDS011;7043;51.630;7.254;2024-01-30T09:53:54;9.00;;;6.80;;
13941;SDS011;7043;51.630;7.254;2024-01-30T09:56:22;7.77;;;6.87;;
13941;SDS011;7043;51.630;7.254;2024-01-30T09:58:47;9.93;;;7.10;;
13941;SDS011;7043;51.630;7.254;2024-01-30T10:01:13;9.63;;;6.90;;
13941;SDS011;7043;51.630;7.254;2024-01-30T10:03:43;9.37;;;6.97;;
13941;SDS011;7043;51.630;7.254;2024-01-30T10:06:09;11.47;;;7.47;;
13941;SDS011;7043;51.630;7.254;2024-01-30T10:08:36;9.83;;;7.43;;
13941;SDS011;7043;51.630;7.254;2024-01-30T10:11:01;8.50;;;7.43;;
13941;SDS011;7043;51.630;7.254;2024-01-30T10:13:28;9.30;;;7.10;;
13941;SDS011;7043;51.630;7.254;2024-01-30T10:21:37;8.97;;;7.30;;
13941;SDS011;7043;51.630;7.254;2024-01-30T10:24:09;10.07;;;7.20;;
13941;SDS011;7043;51.630;7.254;2024-01-30T10:26:59;9.10;;;6.87;;
13941;SDS011;7043;51.630;7.254;2024-01-30T10:30:01;9.70;;;6.90;;
13941;SDS011;7043;51.630;7.254;2024-01-30T10:32:29;9.03;;;7.23;;
13941;SDS011;7043;51.630;7.254;2024-01-30T10:34:55;9.57;;;7.83;;
13941;SDS011;7043;51.630;7.254;2024-01-30T10:37:21;8.77;;;7.00;;
13941;SDS011;7043;51.630;7.254;2024-01-30T10:39:50;8.27;;;7.13;;
13941;SDS011;7043;51.630;7.254;2024-01-30T10:42:18;7.73;;;6.50;;
13941;SDS011;7043;51.630;7.254;2024-01-30T10:47:11;8.70;;;6.33;;
13941;SDS011;7043;51.630;7.254;2024-01-30T10:49:39;11.90;;;6.10;;
13941;SDS011;7043;51.630;7.254;2024-01-30T10:52:08;8.20;;;6.03;;
13941;SDS011;7043;51.630;7.254;2024-01-30T10:54:34;7.30;;;5.97;;
13941;SDS011;7043;51.630;7.254;2024-01-30T10:57:01;7.30;;;5.60;;
13941;SDS011;7043;51.630;7.254;2024-01-30T10:59:28;6.93;;;6.10;;
13941;SDS011;7043;51.630;7.254;2024-01-30T11:01:56;10.93;;;6.67;;
13941;SDS011;7043;51.630;7.254;2024-01-30T11:04:22;8.80;;;6.27;;
13941;SDS011;7043;51.630;7.254;2024-01-30T11:06:48;8.27;;;5.95;;
13941;SDS011;7043;51.630;7.254;2024-01-30T11:09:16;7.60;;;6.28;;
13941;SDS011;7043;51.630;7.254;2024-01-30T11:11:49;10.13;;;6.93;;
13941;SDS011;7043;51.630;7.254;2024-01-30T11:14:15;7.78;;;6.07;;
13941;SDS011;7043;51.630;7.254;2024-01-30T11:16:41;8.33;;;6.07;;
13941;SDS011;7043;51.630;7.254;2024-01-30T11:19:10;8.47;;;6.20;;
13941;SDS011;7043;51.630;7.254;2024-01-30T11:21:43;7.90;;;6.50;;
13941;SDS011;7043;51.630;7.254;2024-01-30T11:24:09;9.10;;;6.70;;
13941;SDS011;7043;51.630;7.254;2024-01-30T11:26:36;9.47;;;6.57;;
13941;SDS011;7043;51.630;7.254;2024-01-30T11:29:03;9.20;;;6.83;;
13941;SDS011;7043;51.630;7.254;2024-01-30T11:31:30;8.90;;;6.27;;
13941;SDS011;7043;51.630;7.254;2024-01-30T11:33:56;7.30;;;6.20;;
13941;SDS011;7043;51.630;7.254;2024-01-30T11:36:25;10.60;;;9.00;;
13941;SDS011;7043;51.630;7.254;2024-01-30T11:38:51;8.50;;;6.67;;
13941;SDS011;7043;51.630;7.254;2024-01-30T11:41:17;7.37;;;6.40;;
13941;SDS011;7043;51.630;7.254;2024-01-30T11:43:51;9.47;;;6.23;;
13941;SDS011;7043;51.630;7.254;2024-01-30T11:46:17;10.97;;;7.57;;
13941;SDS011;7043;51.630;7.254;2024-01-30T11:48:43;10.03;;;7.30;;
13941;SDS011;7043;51.630;7.254;2024-01-30T11:51:09;11.10;;;7.20;;
13941;SDS011;7043;51.630;7.254;2024-01-30T11:53:35;9.77;;;7.00;;
13941;SDS011;7043;51.630;7.254;2024-01-30T11:56:01;9.17;;;7.10;;
13941;SDS011;7043;51.630;7.254;2024-01-30T11:58:27;9.37;;;7.03;;
13941;SDS011;7043;51.630;7.254;2024-01-30T12:00:54;9.87;;;7.53;;
13941;SDS011;7043;51.630;7.254;2024-01-30T12:03:21;10.23;;;7.53;;
13941;SDS011;7043;51.630;7.254;2024-01-30T12:05:47;10.13;;;7.37;;
13941;SDS011;7043;51.630;7.254;2024-01-30T12:08:20;11.00;;;7.70;;
13941;SDS011;7043;51.630;7.254;2024-01-30T12:10:46;11.50;;;7.60;;
13941;SDS011;7043;51.630;7.254;2024-01-30T12:13:12;10.20;;;7.80;;
13941;SDS011;7043;51.630;7.254;2024-01-30T12:15:38;9.40;;;7.50;;
13941;SDS011;7043;51.630;7.254;2024-01-30T12:18:05;10.23;;;7.37;;
13941;SDS011;7043;51.630;7.254;2024-01-30T12:20:31;8.87;;;7.50;;
13941;SDS011;7043;51.630;7.254;2024-01-30T12:22:57;10.30;;;7.10;;
13941;SDS011;7043;51.630;7.254;2024-01-30T12:25:23;9.90;;;7.30;;
13941;SDS011;7043;51.630;7.254;2024-01-30T12:27:49;10.90;;;7.97;;
13941;SDS011;7043;51.630;7.254;2024-01-30T12:30:16;12.00;;;8.03;;
13941;SDS011;7043;51.630;7.254;2024-01-30T12:32:49;9.97;;;8.00;;
13941;SDS011;7043;51.630;7.254;2024-01-30T12:35:24;10.70;;;7.73;;
13941;SDS011;7043;51.630;7.254;2024-01-30T12:37:50;8.63;;;7.23;;
13941;SDS011;7043;51.630;7.254;2024-01-30T12:43:09;10.73;;;8.03;;
13941;SDS011;7043;51.630;7.254;2024-01-30T12:45:44;9.27;;;7.40;;
13941;SDS011;7043;51.630;7.254;2024-01-30T12:48:43;10.53;;;8.00;;
13941;SDS011;7043;51.630;7.254;2024-01-30T12:51:27;12.67;;;8.07;;
13941;SDS011;7043;51.630;7.254;2024-01-30T12:54:34;11.50;;;7.47;;
13941;SDS011;7043;51.630;7.254;2024-01-30T12:57:00;9.93;;;7.93;;
13941;SDS011;7043;51.630;7.254;2024-01-30T12:59:26;13.90;;;8.07;;
13941;SDS011;7043;51.630;7.254;2024-01-30T13:01:55;12.40;;;8.43;;
13941;SDS011;7043;51.630;7.254;2024-01-30T13:04:24;12.43;;;8.13;;
13941;SDS011;7043;51.630;7.254;2024-01-30T13:06:50;12.37;;;7.63;;
13941;SDS011;7043;51.630;7.254;2024-01-30T13:09:22;11.40;;;8.20;;
13941;SDS011;7043;51.630;7.254;2024-01-30T13:14:49;12.00;;;7.90;;
13941;SDS011;7043;51.630;7.254;2024-01-30T13:17:15;11.87;;;8.40;;
13941;SDS011;7043;51.630;7.254;2024-01-30T13:19:41;11.50;;;8.53;;
13941;SDS011;7043;51.630;7.254;2024-01-30T13:22:07;12.10;;;8.57;;
13941;SDS011;7043;51.630;7.254;2024-01-30T13:24:42;11.87;;;7.97;;
13941;SDS011;7043;51.630;7.254;2024-01-30T13:27:14;9.23;;;7.37;;
13941;SDS011;7043;51.630;7.254;2024-01-30T13:29:43;12.50;;;7.90;;
13941;SDS011;7043;51.630;7.254;2024-01-30T13:32:09;10.97;;;8.20;;
13941;SDS011;7043;51.630;7.254;2024-01-30T13:34:35;12.70;;;8.67;;
13941;SDS011;7043;51.630;7.254;2024-01-30T13:37:11;11.77;;;8.83;;
13941;SDS011;7043;51.630;7.254;2024-01-30T13:39:43;11.67;;;7.57;;
13941;SDS011;7043;51.630;7.254;2024-01-30T13:42:14;11.20;;;8.17;;
13941;SDS011;7043;51.630;7.254;2024-01-30T13:44:40;11.50;;;8.03;;
13941;SDS011;7043;51.630;7.254;2024-01-30T13:47:08;10.50;;;8.07;;
13941;SDS011;7043;51.630;7.254;2024-01-30T13:49:34;14.50;;;8.67;;
13941;SDS011;7043;51.630;7.254;2024-01-30T13:52:06;14.67;;;8.43;;
13941;SDS011;7043;51.630;7.254;2024-01-30T13:54:38;12.33;;;8.40;;
13941;SDS011;7043;51.630;7.254;2024-01-30T13:57:08;12.60;;;8.80;;
13941;SDS011;7043;51.630;7.254;2024-01-30T13:59:34;11.37;;;8.70;;
13941;SDS011;7043;51.630;7.254;2024-01-30T14:02:03;11.63;;;9.03;;
13941;SDS011;7043;51.630;7.254;2024-01-30T14:04:30;13.30;;;8.60;;
13941;SDS011;7043;51.630;7.254;2024-01-30T14:12:33;10.43;;;8.23;;
13941;SDS011;7043;51.630;7.254;2024-01-30T14:14:59;11.97;;;8.10;;
13941;SDS011;7043;51.630;7.254;2024-01-30T14:17:34;12.63;;;8.57;;
13941;SDS011;7043;51.630;7.254;2024-01-30T14:20:21;10.37;;;8.17;;
13941;SDS011;7043;51.630;7.254;2024-01-30T14:22:59;10.50;;;8.23;;
13941;SDS011;7043;51.630;7.254;2024-01-30T14:25:34;10.97;;;7.97;;
13941;SDS011;7043;51.630;7.254;2024-01-30T14:28:05;10.10;;;8.17;;
13941;SDS011;7043;51.630;7.254;2024-01-30T14:30:43;10.13;;;8.37;;
13941;SDS011;7043;51.630;7.254;2024-01-30T14:33:13;10.97;;;8.33;;
13941;SDS011;7043;51.630;7.254;2024-01-30T14:36:26;11.83;;;8.93;;
13941;SDS011;7043;51.630;7.254;2024-01-30T14:42:04;14.93;;;9.03;;
13941;SDS011;7043;51.630;7.254;2024-01-30T14:44:39;11.97;;;9.10;;
13941;SDS011;7043;51.630;7.254;2024-01-30T14:47:14;14.47;;;9.03;;
13941;SDS011;7043;51.630;7.254;2024-01-30T14:49:40;11.10;;;9.17;;
13941;SDS011;7043;51.630;7.254;2024-01-30T14:52:06;11.57;;;8.93;;
13941;SDS011;7043;51.630;7.254;2024-01-30T14:54:35;12.40;;;8.70;;
13941;SDS011;7043;51.630;7.254;2024-01-30T14:57:04;13.07;;;9.20;;
13941;SDS011;7043;51.630;7.254;2024-01-30T14:59:33;11.00;;;9.33;;
13941;SDS011;7043;51.630;7.254;2024-01-30T15:01:59;12.67;;;8.70;;
13941;SDS011;7043;51.630;7.254;2024-01-30T15:04:46;10.70;;;8.33;;
13941;SDS011;7043;51.630;7.254;2024-01-30T15:07:18;11.27;;;7.90;;
13941;SDS011;7043;51.630;7.254;2024-01-30T15:10:05;12.30;;;9.37;;
13941;SDS011;7043;51.630;7.254;2024-01-30T15:12:45;12.80;;;9.40;;
13941;SDS011;7043;51.630;7.254;2024-01-30T15:15:14;11.57;;;8.63;;
13941;SDS011;7043;51.630;7.254;2024-01-30T15:17:55;8.17;;;6.83;;
13941;SDS011;7043;51.630;7.254;2024-01-30T15:20:22;9.90;;;6.07;;
13941;SDS011;7043;51.630;7.254;2024-01-30T15:22:51;8.77;;;6.27;;
13941;SDS011;7043;51.630;7.254;2024-01-30T15:25:48;7.27;;;6.53;;
13941;SDS011;7043;51.630;7.254;2024-01-30T15:28:41;6.50;;;5.20;;
13941;SDS011;7043;51.630;7.254;2024-01-30T15:31:17;7.83;;;4.80;;
13941;SDS011;7043;51.630;7.254;2024-01-30T15:33:49;7.10;;;4.47;;
13941;SDS011;7043;51.630;7.254;2024-01-30T15:36:15;6.67;;;4.20;;
13941;SDS011;7043;51.630;7.254;2024-01-30T15:38:41;5.10;;;4.10;;
13941;SDS011;7043;51.630;7.254;2024-01-30T15:44:29;7.97;;;3.83;;
13941;SDS011;7043;51.630;7.254;2024-01-30T15:46:56;4.27;;;3.50;;
13941;SDS011;7043;51.630;7.254;2024-01-30T15:49:26;5.90;;;2.97;;
13941;SDS011;7043;51.630;7.254;2024-01-30T15:52:03;5.70;;;3.53;;
13941;SDS011;7043;51.630;7.254;2024-01-30T15:54:42;4.60;;;2.50;;
13941;SDS011;7043;51.630;7.254;2024-01-30T15:57:26;4.77;;;3.47;;
13941;SDS011;7043;51.630;7.254;2024-01-30T16:00:15;5.00;;;3.63;;
13941;SDS011;7043;51.630;7.254;2024-01-30T16:02:44;5.87;;;3.10;;
13941;SDS011;7043;51.630;7.254;2024-01-30T16:05:14;5.83;;;3.53;;
13941;SDS011;7043;51.630;7.254;2024-01-30T16:07:55;5.47;;;2.90;;
13941;SDS011;7043;51.630;7.254;2024-01-30T16:10:21;3.27;;;2.00;;
13941;SDS011;7043;51.630;7.254;2024-01-30T16:12:47;4.03;;;1.33;;
13941;SDS011;7043;51.630;7.254;2024-01-30T16:15:17;2.40;;;1.40;;
13941;SDS011;7043;51.630;7.254;2024-01-30T16:17:52;3.53;;;1.87;;
13941;SDS011;7043;51.630;7.254;2024-01-30T16:20:19;2.67;;;1.60;;
13941;SDS011;7043;51.630;7.254;2024-01-30T16:23:04;4.03;;;1.73;;
13941;SDS011;7043;51.630;7.254;2024-01-30T16:28:24;2.77;;;1.50;;
13941;SDS011;7043;51.630;7.254;2024-01-30T16:33:46;3.37;;;1.80;;
13941;SDS011;7043;51.630;7.254;2024-01-30T16:38:59;4.57;;;2.70;;
13941;SDS011;7043;51.630;7.254;2024-01-30T16:41:46;2.53;;;1.70;;
13941;SDS011;7043;51.630;7.254;2024-01-30T16:44:40;4.50;;;2.10;;
13941;SDS011;7043;51.630;7.254;2024-01-30T16:47:12;4.73;;;2.50;;
13941;SDS011;7043;51.630;7.254;2024-01-30T16:52:40;4.10;;;2.20;;
13941;SDS011;7043;51.630;7.254;2024-01-30T16:55:24;1.97;;;1.70;;
13941;SDS011;7043;51.630;7.254;2024-01-30T16:57:51;4.50;;;1.57;;
13941;SDS011;7043;51.630;7.254;2024-01-30T17:00:23;3.37;;;1.73;;
13941;SDS011;7043;51.630;7.254;2024-01-30T17:02:55;2.80;;;1.60;;
13941;SDS011;7043;51.630;7.254;2024-01-30T17:05:45;2.00;;;1.57;;
13941;SDS011;7043;51.630;7.254;2024-01-30T17:08:26;3.13;;;1.50;;
13941;SDS011;7043;51.630;7.254;2024-01-30T17:11:33;3.20;;;1.80;;
13941;SDS011;7043;51.630;7.254;2024-01-30T17:14:08;3.17;;;1.70;;
13941;SDS011;7043;51.630;7.254;2024-01-30T17:19:42;3.50;;;1.80;;
13941;SDS011;7043;51.630;7.254;2024-01-30T17:24:50;3.23;;;1.60;;
13941;SDS011;7043;51.630;7.254;2024-01-30T17:27:27;3.63;;;2.00;;
13941;SDS011;7043;51.630;7.254;2024-01-30T17:30:04;4.17;;;1.83;;